sensor_id;sensor_type;location;lat;lon;timestamp;pressure;altitude;pressure_sealevel;temperature;humidity
76022;BME280;64718;52.124;6.226;2023-02-26T00:02:18;101889.44;;;-0.21;100.00
76022;BME280;64718;52.124;6.226;2023-02-26T00:04:45;101890.31;;;-0.20;100.00
76022;BME280;64718;52.124;6.226;2023-02-26T00:07:11;101889.41;;;-0.22;100.00
76022;BME280;64718;52.124;6.226;2023-02-26T00:09:39;101893.81;;;-0.15;100.00
76022;BME280;64718;52.124;6.226;2023-02-26T00:12:08;101896.34;;;-0.17;100.00
76022;BME280;64718;52.124;6.226;2023-02-26T00:14:36;101906.72;;;-0.08;99.92
76022;BME280;64718;52.124;6.226;2023-02-26T00:17:15;101910.19;;;-0.04;99.50
76022;BME280;64718;52.124;6.226;2023-02-26T00:19:47;101907.59;;;-0.07;99.59
76022;BME280;64718;52.124;6.226;2023-02-26T00:22:14;101904.16;;;-0.09;100.00
76022;BME280;64718;52.124;6.226;2023-02-26T00:24:42;101912.66;;;-0.10;99.96
76022;BME280;64718;52.124;6.226;2023-02-26T00:27:10;101918.44;;;-0.19;100.00
76022;BME280;64718;52.124;6.226;2023-02-26T00:29:37;101921.72;;;-0.26;100.00
76022;BME280;64718;52.124;6.226;2023-02-26T00:32:04;101929.09;;;-0.41;100.00
76022;BME280;64718;52.124;6.226;2023-02-26T00:34:32;101932.44;;;-0.45;100.00
76022;BME280;64718;52.124;6.226;2023-02-26T00:37:07;101932.38;;;-0.48;100.00
76022;BME280;64718;52.124;6.226;2023-02-26T00:39:40;101947.66;;;-0.50;100.00
76022;BME280;64718;52.124;6.226;2023-02-26T00:42:11;101941.84;;;-0.43;100.00
76022;BME280;64718;52.124;6.226;2023-02-26T00:44:39;101943.75;;;-0.33;99.65
76022;BME280;64718;52.124;6.226;2023-02-26T00:47:10;101947.94;;;-0.36;99.53
76022;BME280;64718;52.124;6.226;2023-02-26T00:49:48;101947.06;;;-0.37;99.40
76022;BME280;64718;52.124;6.226;2023-02-26T00:52:21;101945.53;;;-0.28;98.92
76022;BME280;64718;52.124;6.226;2023-02-26T00:54:51;101946.28;;;-0.34;98.74
76022;BME280;64718;52.124;6.226;2023-02-26T00:57:19;101948.69;;;-0.42;98.90
76022;BME280;64718;52.124;6.226;2023-02-26T00:59:45;101946.03;;;-0.46;98.68
76022;BME280;64718;52.124;6.226;2023-02-26T01:02:12;101939.94;;;-0.53;98.79
76022;BME280;64718;52.124;6.226;2023-02-26T01:04:40;101938.25;;;-0.52;98.24
76022;BME280;64718;52.124;6.226;2023-02-26T01:07:08;101939.72;;;-0.62;98.79
76022;BME280;64718;52.124;6.226;2023-02-26T01:09:37;101937.97;;;-0.65;99.10
76022;BME280;64718;52.124;6.226;2023-02-26T01:12:06;101947.34;;;-0.64;99.12
76022;BME280;64718;52.124;6.226;2023-02-26T01:14:35;101941.41;;;-0.63;98.68
76022;BME280;64718;52.124;6.226;2023-02-26T01:19:40;101952.97;;;-0.80;98.91
76022;BME280;64718;52.124;6.226;2023-02-26T01:22:14;101953.78;;;-0.82;98.75
76022;BME280;64718;52.124;6.226;2023-02-26T01:24:44;101958.81;;;-0.85;98.68
76022;BME280;64718;52.124;6.226;2023-02-26T01:27:12;101961.16;;;-0.94;99.31
76022;BME280;64718;52.124;6.226;2023-02-26T01:29:41;101967.03;;;-0.99;99.37
76022;BME280;64718;52.124;6.226;2023-02-26T01:32:13;101970.41;;;-1.00;99.42
76022;BME280;64718;52.124;6.226;2023-02-26T01:34:45;101969.53;;;-1.00;98.99
76022;BME280;64718;52.124;6.226;2023-02-26T01:37:21;101964.25;;;-1.08;99.81
76022;BME280;64718;52.124;6.226;2023-02-26T01:40:19;101968.31;;;-1.16;100.00
76022;BME280;64718;52.124;6.226;2023-02-26T01:42:50;101966.47;;;-1.21;100.00
76022;BME280;64718;52.124;6.226;2023-02-26T01:45:28;101972.19;;;-1.32;100.00
76022;BME280;64718;52.124;6.226;2023-02-26T01:48:01;101970.41;;;-1.34;100.00
76022;BME280;64718;52.124;6.226;2023-02-26T01:50:32;101973.22;;;-1.23;100.00
76022;BME280;64718;52.124;6.226;2023-02-26T01:53:21;101975.78;;;-1.23;99.66
76022;BME280;64718;52.124;6.226;2023-02-26T01:55:52;101979.91;;;-1.29;99.84
76022;BME280;64718;52.124;6.226;2023-02-26T01:58:21;101979.75;;;-1.35;100.00
76022;BME280;64718;52.124;6.226;2023-02-26T02:00:49;101976.06;;;-1.47;100.00
76022;BME280;64718;52.124;6.226;2023-02-26T02:03:17;101978.41;;;-1.55;100.00
76022;BME280;64718;52.124;6.226;2023-02-26T02:05:48;101985.78;;;-1.66;100.00
76022;BME280;64718;52.124;6.226;2023-02-26T02:08:16;101991.34;;;-1.80;100.00
76022;BME280;64718;52.124;6.226;2023-02-26T02:10:46;101995.41;;;-1.87;100.00
76022;BME280;64718;52.124;6.226;2023-02-26T02:13:21;101992.91;;;-1.85;100.00
76022;BME280;64718;52.124;6.226;2023-02-26T02:15:55;101994.50;;;-1.89;100.00
76022;BME280;64718;52.124;6.226;2023-02-26T02:18:32;102008.19;;;-1.85;100.00
76022;BME280;64718;52.124;6.226;2023-02-26T02:24:08;102016.28;;;-1.70;100.00
76022;BME280;64718;52.124;6.226;2023-02-26T02:26:59;102013.50;;;-1.78;100.00
76022;BME280;64718;52.124;6.226;2023-02-26T02:29:54;102030.34;;;-1.83;100.00
76022;BME280;64718;52.124;6.226;2023-02-26T02:32:28;102033.94;;;-1.76;100.00
76022;BME280;64718;52.124;6.226;2023-02-26T02:35:03;102039.03;;;-1.76;100.00
76022;BME280;64718;52.124;6.226;2023-02-26T02:37:35;102034.84;;;-1.74;100.00
76022;BME280;64718;52.124;6.226;2023-02-26T02:40:06;102050.09;;;-1.76;100.00
76022;BME280;64718;52.124;6.226;2023-02-26T02:42:40;102045.66;;;-1.83;100.00
76022;BME280;64718;52.124;6.226;2023-02-26T02:45:11;102047.28;;;-1.85;100.00
76022;BME280;64718;52.124;6.226;2023-02-26T02:47:43;102048.94;;;-1.87;100.00
76022;BME280;64718;52.124;6.226;2023-02-26T02:50:17;102048.03;;;-1.89;100.00
76022;BME280;64718;52.124;6.226;2023-02-26T02:52:48;102058.03;;;-1.97;100.00
76022;BME280;64718;52.124;6.226;2023-02-26T02:55:19;102057.31;;;-1.91;100.00
76022;BME280;64718;52.124;6.226;2023-02-26T02:57:51;102057.44;;;-1.86;100.00
76022;BME280;64718;52.124;6.226;2023-02-26T03:00:20;102056.69;;;-1.84;100.00
76022;BME280;64718;52.124;6.226;2023-02-26T03:02:56;102060.22;;;-1.79;99.52
76022;BME280;64718;52.124;6.226;2023-02-26T03:05:25;102063.63;;;-1.78;99.80
76022;BME280;64718;52.124;6.226;2023-02-26T03:07:53;102057.63;;;-1.80;99.67
76022;BME280;64718;52.124;6.226;2023-02-26T03:10:22;102053.50;;;-1.75;98.63
76022;BME280;64718;52.124;6.226;2023-02-26T03:12:49;102051.75;;;-1.78;97.92
76022;BME280;64718;52.124;6.226;2023-02-26T03:15:20;102058.41;;;-1.83;98.38
76022;BME280;64718;52.124;6.226;2023-02-26T03:17:56;102064.19;;;-1.88;97.93
76022;BME280;64718;52.124;6.226;2023-02-26T03:20:27;102078.66;;;-1.87;98.25
76022;BME280;64718;52.124;6.226;2023-02-26T03:23:03;102075.13;;;-1.93;98.21
76022;BME280;64718;52.124;6.226;2023-02-26T03:25:38;102080.34;;;-1.88;97.70
76022;BME280;64718;52.124;6.226;2023-02-26T03:28:10;102081.88;;;-1.95;97.39
76022;BME280;64718;52.124;6.226;2023-02-26T03:30:44;102080.88;;;-2.00;97.98
76022;BME280;64718;52.124;6.226;2023-02-26T03:33:17;102085.81;;;-2.06;98.12
76022;BME280;64718;52.124;6.226;2023-02-26T03:35:49;102085.84;;;-2.04;97.72
76022;BME280;64718;52.124;6.226;2023-02-26T03:38:23;102093.56;;;-2.01;97.79
76022;BME280;64718;52.124;6.226;2023-02-26T03:40:55;102092.75;;;-2.00;97.60
76022;BME280;64718;52.124;6.226;2023-02-26T03:43:34;102086.50;;;-2.11;97.89
76022;BME280;64718;52.124;6.226;2023-02-26T03:46:06;102095.00;;;-2.11;97.84
76022;BME280;64718;52.124;6.226;2023-02-26T03:48:35;102110.28;;;-2.11;97.34
76022;BME280;64718;52.124;6.226;2023-02-26T03:51:05;102106.22;;;-2.04;96.86
76022;BME280;64718;52.124;6.226;2023-02-26T03:53:35;102106.81;;;-2.13;97.28
76022;BME280;64718;52.124;6.226;2023-02-26T03:56:07;102115.28;;;-2.14;97.37
76022;BME280;64718;52.124;6.226;2023-02-26T03:58:37;102116.84;;;-2.19;97.36
76022;BME280;64718;52.124;6.226;2023-02-26T04:01:07;102122.63;;;-2.25;97.31
76022;BME280;64718;52.124;6.226;2023-02-26T04:03:39;102115.84;;;-2.24;97.45
76022;BME280;64718;52.124;6.226;2023-02-26T04:06:08;102124.25;;;-2.27;97.36
76022;BME280;64718;52.124;6.226;2023-02-26T04:08:35;102128.59;;;-2.24;97.01
76022;BME280;64718;52.124;6.226;2023-02-26T04:11:05;102126.91;;;-2.24;96.85
76022;BME280;64718;52.124;6.226;2023-02-26T04:13:33;102135.50;;;-2.20;96.70
76022;BME280;64718;52.124;6.226;2023-02-26T04:16:00;102134.78;;;-2.16;96.18
76022;BME280;64718;52.124;6.226;2023-02-26T04:18:26;102144.06;;;-2.18;95.71
76022;BME280;64718;52.124;6.226;2023-02-26T04:20:54;102150.91;;;-2.15;94.94
76022;BME280;64718;52.124;6.226;2023-02-26T04:23:21;102156.75;;;-2.19;95.13
76022;BME280;64718;52.124;6.226;2023-02-26T04:25:47;102151.50;;;-2.24;95.42
76022;BME280;64718;52.124;6.226;2023-02-26T04:28:14;102152.41;;;-2.22;95.01
76022;BME280;64718;52.124;6.226;2023-02-26T04:30:41;102170.34;;;-2.19;94.16
76022;BME280;64718;52.124;6.226;2023-02-26T04:33:07;102172.66;;;-2.27;94.70
76022;BME280;64718;52.124;6.226;2023-02-26T04:35:34;102172.44;;;-2.33;95.40
76022;BME280;64718;52.124;6.226;2023-02-26T04:38:02;102173.22;;;-2.35;95.48
76022;BME280;64718;52.124;6.226;2023-02-26T04:40:29;102175.94;;;-2.31;95.24
76022;BME280;64718;52.124;6.226;2023-02-26T04:42:56;102177.66;;;-2.30;94.54
76022;BME280;64718;52.124;6.226;2023-02-26T04:45:23;102181.06;;;-2.29;94.99
76022;BME280;64718;52.124;6.226;2023-02-26T04:47:49;102181.22;;;-2.25;94.60
76022;BME280;64718;52.124;6.226;2023-02-26T04:50:16;102185.44;;;-2.25;94.49
76022;BME280;64718;52.124;6.226;2023-02-26T04:52:42;102194.69;;;-2.29;94.20
76022;BME280;64718;52.124;6.226;2023-02-26T04:55:10;102193.75;;;-2.31;94.04
76022;BME280;64718;52.124;6.226;2023-02-26T04:57:37;102192.00;;;-2.32;94.22
76022;BME280;64718;52.124;6.226;2023-02-26T05:00:04;102196.41;;;-2.28;94.13
76022;BME280;64718;52.124;6.226;2023-02-26T05:02:32;102203.13;;;-2.30;94.32
76022;BME280;64718;52.124;6.226;2023-02-26T05:04:59;102203.09;;;-2.31;94.46
76022;BME280;64718;52.124;6.226;2023-02-26T05:07:26;102206.38;;;-2.34;94.49
76022;BME280;64718;52.124;6.226;2023-02-26T05:09:52;102215.59;;;-2.37;94.71
76022;BME280;64718;52.124;6.226;2023-02-26T05:12:20;102216.50;;;-2.35;93.50
76022;BME280;64718;52.124;6.226;2023-02-26T05:14:47;102215.66;;;-2.36;94.00
76022;BME280;64718;52.124;6.226;2023-02-26T05:17:13;102219.13;;;-2.34;94.07
76022;BME280;64718;52.124;6.226;2023-02-26T05:19:40;102219.97;;;-2.33;94.08
76022;BME280;64718;52.124;6.226;2023-02-26T05:22:06;102226.75;;;-2.34;94.17
76022;BME280;64718;52.124;6.226;2023-02-26T05:24:33;102226.66;;;-2.37;94.04
76022;BME280;64718;52.124;6.226;2023-02-26T05:27:00;102224.78;;;-2.42;94.79
76022;BME280;64718;52.124;6.226;2023-02-26T05:29:28;102232.41;;;-2.42;93.69
76022;BME280;64718;52.124;6.226;2023-02-26T05:31:54;102241.78;;;-2.41;93.92
76022;BME280;64718;52.124;6.226;2023-02-26T05:34:21;102232.31;;;-2.45;94.52
76022;BME280;64718;52.124;6.226;2023-02-26T05:36:48;102241.06;;;-2.37;94.23
76022;BME280;64718;52.124;6.226;2023-02-26T05:39:14;102246.94;;;-2.40;93.64
76022;BME280;64718;52.124;6.226;2023-02-26T05:41:41;102256.06;;;-2.46;93.81
76022;BME280;64718;52.124;6.226;2023-02-26T05:44:07;102248.41;;;-2.46;95.04
76022;BME280;64718;52.124;6.226;2023-02-26T05:46:35;102260.22;;;-2.48;95.02
76022;BME280;64718;52.124;6.226;2023-02-26T05:49:02;102259.38;;;-2.49;94.76
76022;BME280;64718;52.124;6.226;2023-02-26T05:51:28;102265.63;;;-2.39;93.63
76022;BME280;64718;52.124;6.226;2023-02-26T05:53:55;102260.63;;;-2.36;93.74
76022;BME280;64718;52.124;6.226;2023-02-26T05:56:21;102268.28;;;-2.36;93.32
76022;BME280;64718;52.124;6.226;2023-02-26T05:58:48;102280.91;;;-2.39;93.19
76022;BME280;64718;52.124;6.226;2023-02-26T06:01:14;102275.88;;;-2.38;93.59
76022;BME280;64718;52.124;6.226;2023-02-26T06:03:42;102278.53;;;-2.35;93.51
76022;BME280;64718;52.124;6.226;2023-02-26T06:06:09;102284.44;;;-2.36;93.22
76022;BME280;64718;52.124;6.226;2023-02-26T06:08:36;102285.28;;;-2.35;92.93
76022;BME280;64718;52.124;6.226;2023-02-26T06:11:02;102292.94;;;-2.35;92.84
76022;BME280;64718;52.124;6.226;2023-02-26T06:13:29;102291.16;;;-2.38;93.14
76022;BME280;64718;52.124;6.226;2023-02-26T06:15:56;102294.47;;;-2.40;93.01
76022;BME280;64718;52.124;6.226;2023-02-26T06:18:22;102297.22;;;-2.34;93.59
76022;BME280;64718;52.124;6.226;2023-02-26T06:20:50;102298.84;;;-2.36;93.49
76022;BME280;64718;52.124;6.226;2023-02-26T06:23:17;102308.22;;;-2.35;93.88
76022;BME280;64718;52.124;6.226;2023-02-26T06:25:43;102309.28;;;-2.30;92.75
76022;BME280;64718;52.124;6.226;2023-02-26T06:28:10;102308.31;;;-2.32;93.75
76022;BME280;64718;52.124;6.226;2023-02-26T06:30:37;102315.09;;;-2.33;93.68
76022;BME280;64718;52.124;6.226;2023-02-26T06:33:03;102321.81;;;-2.35;93.66
76022;BME280;64718;52.124;6.226;2023-02-26T06:35:30;102324.47;;;-2.32;92.88
76022;BME280;64718;52.124;6.226;2023-02-26T06:37:58;102335.28;;;-2.39;93.14
76022;BME280;64718;52.124;6.226;2023-02-26T06:40:24;102328.44;;;-2.40;93.96
76022;BME280;64718;52.124;6.226;2023-02-26T06:42:51;102336.25;;;-2.35;92.77
76022;BME280;64718;52.124;6.226;2023-02-26T06:45:17;102334.66;;;-2.32;92.77
76022;BME280;64718;52.124;6.226;2023-02-26T06:47:44;102344.00;;;-2.32;92.87
76022;BME280;64718;52.124;6.226;2023-02-26T06:50:11;102342.59;;;-2.24;92.63
76022;BME280;64718;52.124;6.226;2023-02-26T06:52:38;102354.53;;;-2.23;92.68
76022;BME280;64718;52.124;6.226;2023-02-26T06:55:07;102355.34;;;-2.24;93.28
76022;BME280;64718;52.124;6.226;2023-02-26T06:57:33;102364.00;;;-2.19;92.25
76022;BME280;64718;52.124;6.226;2023-02-26T07:00:00;102364.22;;;-2.13;92.44
76022;BME280;64718;52.124;6.226;2023-02-26T07:02:27;102377.22;;;-2.05;92.24
76022;BME280;64718;52.124;6.226;2023-02-26T07:04:53;102379.91;;;-2.01;92.76
76022;BME280;64718;52.124;6.226;2023-02-26T07:07:20;102379.91;;;-2.01;92.76
76022;BME280;64718;52.124;6.226;2023-02-26T07:09:46;102383.59;;;-1.93;92.37
76022;BME280;64718;52.124;6.226;2023-02-26T07:12:15;102384.66;;;-1.86;92.39
76022;BME280;64718;52.124;6.226;2023-02-26T07:14:41;102383.97;;;-1.80;91.74
76022;BME280;64718;52.124;6.226;2023-02-26T07:17:10;102387.81;;;-1.68;91.02
76022;BME280;64718;52.124;6.226;2023-02-26T07:19:44;102392.25;;;-1.62;90.97
76022;BME280;64718;52.124;6.226;2023-02-26T07:22:11;102396.88;;;-1.50;90.98
76022;BME280;64718;52.124;6.226;2023-02-26T07:24:37;102394.66;;;-1.40;90.25
76022;BME280;64718;52.124;6.226;2023-02-26T07:27:04;102400.41;;;-0.91;89.07
76022;BME280;64718;52.124;6.226;2023-02-26T07:29:32;102394.88;;;0.16;85.63
76022;BME280;64718;52.124;6.226;2023-02-26T07:31:58;102394.81;;;0.85;82.53
76022;BME280;64718;52.124;6.226;2023-02-26T07:34:25;102402.03;;;1.03;80.47
76022;BME280;64718;52.124;6.226;2023-02-26T07:36:51;102403.88;;;1.09;80.29
76022;BME280;64718;52.124;6.226;2023-02-26T07:39:18;102411.69;;;1.55;79.11
76022;BME280;64718;52.124;6.226;2023-02-26T07:41:44;102405.31;;;1.35;78.04
76022;BME280;64718;52.124;6.226;2023-02-26T07:44:11;102419.75;;;1.32;78.57
76022;BME280;64718;52.124;6.226;2023-02-26T07:46:39;102414.16;;;1.93;77.59
76022;BME280;64718;52.124;6.226;2023-02-26T07:49:06;102417.38;;;2.31;76.07
76022;BME280;64718;52.124;6.226;2023-02-26T07:51:32;102421.63;;;2.29;75.45
76022;BME280;64718;52.124;6.226;2023-02-26T07:53:59;102419.16;;;2.34;75.65
76022;BME280;64718;52.124;6.226;2023-02-26T07:56:25;102423.66;;;2.47;73.62
76022;BME280;64718;52.124;6.226;2023-02-26T07:58:52;102431.75;;;2.21;74.80
76022;BME280;64718;52.124;6.226;2023-02-26T08:01:18;102435.63;;;2.46;75.49
76022;BME280;64718;52.124;6.226;2023-02-26T08:03:46;102440.47;;;2.31;75.13
76022;BME280;64718;52.124;6.226;2023-02-26T08:06:13;102438.50;;;2.16;76.14
76022;BME280;64718;52.124;6.226;2023-02-26T08:08:39;102444.25;;;2.50;75.97
76022;BME280;64718;52.124;6.226;2023-02-26T08:11:06;102448.63;;;2.56;74.49
76022;BME280;64718;52.124;6.226;2023-02-26T08:13:32;102446.84;;;2.51;75.31
76022;BME280;64718;52.124;6.226;2023-02-26T08:15:59;102454.16;;;2.81;74.46
76022;BME280;64718;52.124;6.226;2023-02-26T08:18:25;102461.03;;;2.84;74.46
76022;BME280;64718;52.124;6.226;2023-02-26T08:20:53;102457.50;;;2.77;73.91
76022;BME280;64718;52.124;6.226;2023-02-26T08:23:20;102454.81;;;2.70;74.11
76022;BME280;64718;52.124;6.226;2023-02-26T08:25:47;102464.03;;;3.10;74.47
76022;BME280;64718;52.124;6.226;2023-02-26T08:28:14;102466.44;;;2.99;74.22
76022;BME280;64718;52.124;6.226;2023-02-26T08:30:41;102475.06;;;3.03;74.02
76022;BME280;64718;52.124;6.226;2023-02-26T08:33:07;102478.34;;;2.94;75.48
76022;BME280;64718;52.124;6.226;2023-02-26T08:35:34;102483.06;;;3.24;73.87
76022;BME280;64718;52.124;6.226;2023-02-26T08:38:02;102486.69;;;3.38;73.21
76022;BME280;64718;52.124;6.226;2023-02-26T08:40:28;102481.47;;;3.32;74.10
76022;BME280;64718;52.124;6.226;2023-02-26T08:42:55;102485.81;;;3.36;71.65
76022;BME280;64718;52.124;6.226;2023-02-26T08:45:21;102496.59;;;3.11;73.84
76022;BME280;64718;52.124;6.226;2023-02-26T08:47:48;102490.91;;;3.33;72.89
76022;BME280;64718;52.124;6.226;2023-02-26T08:50:16;102493.19;;;3.74;73.42
76022;BME280;64718;52.124;6.226;2023-02-26T08:52:43;102493.75;;;3.52;72.47
76022;BME280;64718;52.124;6.226;2023-02-26T08:55:11;102499.13;;;3.68;73.16
76022;BME280;64718;52.124;6.226;2023-02-26T08:57:37;102502.66;;;3.78;71.26
76022;BME280;64718;52.124;6.226;2023-02-26T09:00:05;102507.38;;;3.46;72.33
76022;BME280;64718;52.124;6.226;2023-02-26T09:02:34;102514.19;;;3.42;72.37
76022;BME280;64718;52.124;6.226;2023-02-26T09:05:01;102522.94;;;3.54;70.59
76022;BME280;64718;52.124;6.226;2023-02-26T09:07:27;102528.03;;;3.51;71.66
76022;BME280;64718;52.124;6.226;2023-02-26T09:09:54;102520.06;;;3.34;70.22
76022;BME280;64718;52.124;6.226;2023-02-26T09:12:22;102523.53;;;3.37;71.16
76022;BME280;64718;52.124;6.226;2023-02-26T09:14:48;102529.72;;;3.48;73.31
76022;BME280;64718;52.124;6.226;2023-02-26T09:17:15;102528.50;;;3.25;73.43
76022;BME280;64718;52.124;6.226;2023-02-26T09:19:42;102534.63;;;3.33;73.51
76022;BME280;64718;52.124;6.226;2023-02-26T09:22:08;102539.53;;;3.16;74.65
76022;BME280;64718;52.124;6.226;2023-02-26T09:24:35;102531.16;;;2.77;73.45
76022;BME280;64718;52.124;6.226;2023-02-26T09:27:01;102532.56;;;2.60;74.63
76022;BME280;64718;52.124;6.226;2023-02-26T09:29:29;102536.75;;;2.54;72.90
76022;BME280;64718;52.124;6.226;2023-02-26T09:31:55;102540.19;;;2.55;73.61
76022;BME280;64718;52.124;6.226;2023-02-26T09:34:22;102540.28;;;2.60;69.77
76022;BME280;64718;52.124;6.226;2023-02-26T09:36:48;102541.97;;;2.58;71.73
76022;BME280;64718;52.124;6.226;2023-02-26T09:39:15;102549.88;;;2.70;71.03
76022;BME280;64718;52.124;6.226;2023-02-26T09:41:43;102545.66;;;2.73;70.09
76022;BME280;64718;52.124;6.226;2023-02-26T09:44:18;102553.56;;;2.85;70.75
76022;BME280;64718;52.124;6.226;2023-02-26T09:47:00;102549.31;;;2.88;69.60
76022;BME280;64718;52.124;6.226;2023-02-26T09:49:45;102558.00;;;2.93;68.13
76022;BME280;64718;52.124;6.226;2023-02-26T09:52:19;102555.31;;;2.88;67.88
76022;BME280;64718;52.124;6.226;2023-02-26T09:54:50;102557.22;;;2.98;68.27
76022;BME280;64718;52.124;6.226;2023-02-26T09:57:25;102545.28;;;3.02;68.44
76022;BME280;64718;52.124;6.226;2023-02-26T09:59:54;102554.94;;;3.16;67.82
76022;BME280;64718;52.124;6.226;2023-02-26T10:02:30;102555.03;;;3.23;68.52
76022;BME280;64718;52.124;6.226;2023-02-26T10:05:04;102566.13;;;3.18;67.04
76022;BME280;64718;52.124;6.226;2023-02-26T10:07:41;102553.25;;;3.17;68.23
76022;BME280;64718;52.124;6.226;2023-02-26T10:10:18;102572.38;;;3.36;67.15
76022;BME280;64718;52.124;6.226;2023-02-26T10:12:49;102568.09;;;3.36;65.87
76022;BME280;64718;52.124;6.226;2023-02-26T10:15:19;102575.00;;;3.39;67.43
76022;BME280;64718;52.124;6.226;2023-02-26T10:17:58;102579.56;;;3.57;66.23
76022;BME280;64718;52.124;6.226;2023-02-26T10:20:29;102577.97;;;3.65;64.58
76022;BME280;64718;52.124;6.226;2023-02-26T10:23:00;102585.78;;;3.72;65.30
76022;BME280;64718;52.124;6.226;2023-02-26T10:25:33;102586.72;;;3.79;64.12
76022;BME280;64718;52.124;6.226;2023-02-26T10:28:10;102591.25;;;3.97;63.73
76022;BME280;64718;52.124;6.226;2023-02-26T10:30:45;102597.53;;;4.16;62.66
76022;BME280;64718;52.124;6.226;2023-02-26T10:33:20;102596.94;;;4.39;57.15
76022;BME280;64718;52.124;6.226;2023-02-26T10:35:53;102592.59;;;4.34;55.58
76022;BME280;64718;52.124;6.226;2023-02-26T10:38:26;102594.09;;;4.15;57.38
76022;BME280;64718;52.124;6.226;2023-02-26T10:40:59;102600.19;;;4.22;58.48
76022;BME280;64718;52.124;6.226;2023-02-26T10:43:31;102593.50;;;4.39;56.39
76022;BME280;64718;52.124;6.226;2023-02-26T10:46:19;102598.84;;;4.57;58.66
76022;BME280;64718;52.124;6.226;2023-02-26T10:49:00;102607.72;;;4.82;58.67
76022;BME280;64718;52.124;6.226;2023-02-26T10:51:33;102598.09;;;4.66;55.29
76022;BME280;64718;52.124;6.226;2023-02-26T10:54:05;102607.34;;;4.49;53.66
76022;BME280;64718;52.124;6.226;2023-02-26T10:56:38;102606.41;;;4.42;54.74
76022;BME280;64718;52.124;6.226;2023-02-26T10:59:04;102610.78;;;4.48;55.61
76022;BME280;64718;52.124;6.226;2023-02-26T11:01:31;102608.28;;;4.55;56.10
76022;BME280;64718;52.124;6.226;2023-02-26T11:04:00;102613.75;;;4.84;56.12
76022;BME280;64718;52.124;6.226;2023-02-26T11:06:30;102616.34;;;4.87;53.79
76022;BME280;64718;52.124;6.226;2023-02-26T11:08:59;102613.66;;;4.75;53.89
76022;BME280;64718;52.124;6.226;2023-02-26T11:11:39;102616.06;;;4.61;55.45
76022;BME280;64718;52.124;6.226;2023-02-26T11:14:06;102618.00;;;4.81;54.00
76022;BME280;64718;52.124;6.226;2023-02-26T11:16:34;102618.78;;;4.72;53.67
76022;BME280;64718;52.124;6.226;2023-02-26T11:19:04;102616.16;;;4.66;56.60
76022;BME280;64718;52.124;6.226;2023-02-26T11:21:37;102613.19;;;4.32;55.35
76022;BME280;64718;52.124;6.226;2023-02-26T11:24:07;102617.47;;;4.33;56.49
76022;BME280;64718;52.124;6.226;2023-02-26T11:26:35;102620.31;;;4.58;55.27
76022;BME280;64718;52.124;6.226;2023-02-26T11:29:03;102617.47;;;4.33;54.30
76022;BME280;64718;52.124;6.226;2023-02-26T11:31:31;102616.03;;;3.89;56.55
76022;BME280;64718;52.124;6.226;2023-02-26T11:33:59;102624.19;;;3.59;57.69
76022;BME280;64718;52.124;6.226;2023-02-26T11:36:30;102609.25;;;3.95;57.75
76022;BME280;64718;52.124;6.226;2023-02-26T11:39:00;102612.31;;;4.33;56.27
76022;BME280;64718;52.124;6.226;2023-02-26T11:41:28;102609.28;;;4.68;55.85
76022;BME280;64718;52.124;6.226;2023-02-26T11:43:59;102608.63;;;4.89;55.31
76022;BME280;64718;52.124;6.226;2023-02-26T11:46:27;102607.97;;;5.09;56.12
76022;BME280;64718;52.124;6.226;2023-02-26T11:48:57;102592.66;;;5.26;56.29
76022;BME280;64718;52.124;6.226;2023-02-26T11:51:28;102607.25;;;5.24;51.88
76022;BME280;64718;52.124;6.226;2023-02-26T11:53:55;102595.97;;;5.15;53.27
76022;BME280;64718;52.124;6.226;2023-02-26T11:56:29;102609.69;;;5.12;53.19
76022;BME280;64718;52.124;6.226;2023-02-26T11:59:01;102607.28;;;5.30;53.42
76022;BME280;64718;52.124;6.226;2023-02-26T12:01:35;102607.38;;;5.41;51.36
76022;BME280;64718;52.124;6.226;2023-02-26T12:04:02;102610.84;;;5.48;51.06
76022;BME280;64718;52.124;6.226;2023-02-26T12:06:31;102607.38;;;5.41;52.01
76022;BME280;64718;52.124;6.226;2023-02-26T12:08:57;102600.38;;;5.26;52.12
76022;BME280;64718;52.124;6.226;2023-02-26T12:11:37;102609.81;;;5.24;52.31
76022;BME280;64718;52.124;6.226;2023-02-26T12:14:25;102602.69;;;4.96;51.14
76022;BME280;64718;52.124;6.226;2023-02-26T12:17:06;102592.59;;;5.20;52.07
76022;BME280;64718;52.124;6.226;2023-02-26T12:19:41;102594.47;;;5.41;51.69
76022;BME280;64718;52.124;6.226;2023-02-26T12:22:24;102597.09;;;5.47;50.61
76022;BME280;64718;52.124;6.226;2023-02-26T12:25:00;102593.69;;;5.53;52.32
76022;BME280;64718;52.124;6.226;2023-02-26T12:27:40;102591.00;;;5.36;53.39
76022;BME280;64718;52.124;6.226;2023-02-26T12:30:44;102595.84;;;4.99;53.38
76022;BME280;64718;52.124;6.226;2023-02-26T12:33:27;102597.56;;;4.99;54.80
76022;BME280;64718;52.124;6.226;2023-02-26T12:36:04;102585.66;;;5.16;53.84
76022;BME280;64718;52.124;6.226;2023-02-26T12:38:40;102590.94;;;5.27;54.84
76022;BME280;64718;52.124;6.226;2023-02-26T12:41:21;102594.53;;;5.49;52.67
76022;BME280;64718;52.124;6.226;2023-02-26T12:43:53;102588.50;;;5.51;51.51
76022;BME280;64718;52.124;6.226;2023-02-26T12:46:33;102588.69;;;5.79;50.93
76022;BME280;64718;52.124;6.226;2023-02-26T12:49:34;102586.00;;;5.65;50.15
76022;BME280;64718;52.124;6.226;2023-02-26T12:52:19;102585.13;;;5.60;50.32
76022;BME280;64718;52.124;6.226;2023-02-26T12:55:00;102590.44;;;5.80;54.29
76022;BME280;64718;52.124;6.226;2023-02-26T12:57:46;102588.81;;;5.94;52.63
76022;BME280;64718;52.124;6.226;2023-02-26T13:00:26;102590.34;;;5.67;51.21
76022;BME280;64718;52.124;6.226;2023-02-26T13:03:18;102592.94;;;5.70;51.97
76022;BME280;64718;52.124;6.226;2023-02-26T13:06:13;102583.44;;;5.66;51.34
76022;BME280;64718;52.124;6.226;2023-02-26T13:08:47;102595.31;;;5.40;51.47
76022;BME280;64718;52.124;6.226;2023-02-26T13:11:29;102610.00;;;5.47;54.47
76022;BME280;64718;52.124;6.226;2023-02-26T13:14:23;102608.41;;;5.67;52.80
76022;BME280;64718;52.124;6.226;2023-02-26T13:16:53;102598.19;;;5.83;49.28